sensor_id;sensor_type;location;lat;lon;timestamp;temperature;humidity
27439;DHT22;14887;51.252;7.470;2023-05-20T00:01:52;11.30;99.90
27439;DHT22;14887;51.252;7.470;2023-05-20T00:04:18;11.20;99.90
27439;DHT22;14887;51.252;7.470;2023-05-20T00:06:43;11.10;99.90
27439;DHT22;14887;51.252;7.470;2023-05-20T00:09:09;11.10;1.00
27439;DHT22;14887;51.252;7.470;2023-05-20T00:11:35;11.10;1.00
27439;DHT22;14887;51.252;7.470;2023-05-20T00:14:00;11.00;1.00
27439;DHT22;14887;51.252;7.470;2023-05-20T00:16:26;11.00;1.00
27439;DHT22;14887;51.252;7.470;2023-05-20T00:18:52;11.00;1.00
27439;DHT22;14887;51.252;7.470;2023-05-20T00:21:17;10.90;1.00
27439;DHT22;14887;51.252;7.470;2023-05-20T00:23:43;10.90;1.00
27439;DHT22;14887;51.252;7.470;2023-05-20T00:26:08;10.80;1.00
27439;DHT22;14887;51.252;7.470;2023-05-20T00:28:35;10.80;1.00
27439;DHT22;14887;51.252;7.470;2023-05-20T00:31:01;10.80;61.80
27439;DHT22;14887;51.252;7.470;2023-05-20T00:33:26;10.80;99.90
27439;DHT22;14887;51.252;7.470;2023-05-20T00:35:52;10.80;99.90
27439;DHT22;14887;51.252;7.470;2023-05-20T00:38:17;10.70;99.90
27439;DHT22;14887;51.252;7.470;2023-05-20T00:40:43;10.70;99.90
27439;DHT22;14887;51.252;7.470;2023-05-20T00:43:09;10.70;99.90
27439;DHT22;14887;51.252;7.470;2023-05-20T00:45:36;10.70;99.90
27439;DHT22;14887;51.252;7.470;2023-05-20T00:48:02;10.70;99.90
27439;DHT22;14887;51.252;7.470;2023-05-20T00:50:28;10.70;99.90
27439;DHT22;14887;51.252;7.470;2023-05-20T00:52:54;10.70;99.90
27439;DHT22;14887;51.252;7.470;2023-05-20T00:55:20;10.70;99.90
27439;DHT22;14887;51.252;7.470;2023-05-20T00:57:47;10.70;99.90
27439;DHT22;14887;51.252;7.470;2023-05-20T01:00:13;10.60;99.90
27439;DHT22;14887;51.252;7.470;2023-05-20T01:02:39;10.60;99.90
27439;DHT22;14887;51.252;7.470;2023-05-20T01:05:05;10.60;99.90
27439;DHT22;14887;51.252;7.470;2023-05-20T01:07:31;10.60;1.00
27439;DHT22;14887;51.252;7.470;2023-05-20T01:09:57;10.60;1.00
27439;DHT22;14887;51.252;7.470;2023-05-20T01:12:26;10.60;99.90
27439;DHT22;14887;51.252;7.470;2023-05-20T01:14:58;10.60;99.90
27439;DHT22;14887;51.252;7.470;2023-05-20T01:17:30;10.60;1.00
27439;DHT22;14887;51.252;7.470;2023-05-20T01:19:58;10.60;1.00
27439;DHT22;14887;51.252;7.470;2023-05-20T01:22:26;10.60;1.00
27439;DHT22;14887;51.252;7.470;2023-05-20T01:24:51;10.60;1.00
27439;DHT22;14887;51.252;7.470;2023-05-20T01:27:22;10.60;1.00
27439;DHT22;14887;51.252;7.470;2023-05-20T01:29:49;10.60;23.00
27439;DHT22;14887;51.252;7.470;2023-05-20T01:32:23;10.70;45.10
27439;DHT22;14887;51.252;7.470;2023-05-20T01:34:51;10.60;99.90
27439;DHT22;14887;51.252;7.470;2023-05-20T01:37:18;10.60;99.90
27439;DHT22;14887;51.252;7.470;2023-05-20T01:39:45;10.50;99.90
27439;DHT22;14887;51.252;7.470;2023-05-20T01:42:11;10.60;99.90
27439;DHT22;14887;51.252;7.470;2023-05-20T01:44:38;10.60;1.00
27439;DHT22;14887;51.252;7.470;2023-05-20T01:47:04;10.60;1.00
27439;DHT22;14887;51.252;7.470;2023-05-20T01:49:29;10.50;1.00
27439;DHT22;14887;51.252;7.470;2023-05-20T01:51:56;10.50;22.20
27439;DHT22;14887;51.252;7.470;2023-05-20T01:54:22;10.50;1.00
27439;DHT22;14887;51.252;7.470;2023-05-20T01:56:48;10.40;99.90
27439;DHT22;14887;51.252;7.470;2023-05-20T01:59:14;10.40;99.90
27439;DHT22;14887;51.252;7.470;2023-05-20T02:01:40;10.40;99.90
27439;DHT22;14887;51.252;7.470;2023-05-20T02:04:05;10.40;1.00
27439;DHT22;14887;51.252;7.470;2023-05-20T02:06:31;10.30;1.00
27439;DHT22;14887;51.252;7.470;2023-05-20T02:08:56;10.30;1.00
27439;DHT22;14887;51.252;7.470;2023-05-20T02:11:22;10.30;95.70
27439;DHT22;14887;51.252;7.470;2023-05-20T02:13:49;10.30;99.90
27439;DHT22;14887;51.252;7.470;2023-05-20T02:16:14;10.30;99.90
27439;DHT22;14887;51.252;7.470;2023-05-20T02:18:40;10.30;99.90
27439;DHT22;14887;51.252;7.470;2023-05-20T02:21:06;10.30;99.90
27439;DHT22;14887;51.252;7.470;2023-05-20T02:23:32;10.20;1.00
27439;DHT22;14887;51.252;7.470;2023-05-20T02:25:58;10.30;99.90
27439;DHT22;14887;51.252;7.470;2023-05-20T02:28:23;10.20;99.90
27439;DHT22;14887;51.252;7.470;2023-05-20T02:30:49;10.10;1.00
27439;DHT22;14887;51.252;7.470;2023-05-20T02:33:20;10.10;29.50
27439;DHT22;14887;51.252;7.470;2023-05-20T02:35:46;10.10;23.60
27439;DHT22;14887;51.252;7.470;2023-05-20T02:38:12;9.90;1.00
27439;DHT22;14887;51.252;7.470;2023-05-20T02:40:38;9.90;1.00
27439;DHT22;14887;51.252;7.470;2023-05-20T02:43:03;9.80;1.00
27439;DHT22;14887;51.252;7.470;2023-05-20T02:45:29;9.80;99.90
27439;DHT22;14887;51.252;7.470;2023-05-20T02:47:55;9.80;99.90
27439;DHT22;14887;51.252;7.470;2023-05-20T02:50:21;9.80;99.90
27439;DHT22;14887;51.252;7.470;2023-05-20T02:52:46;9.80;99.90
27439;DHT22;14887;51.252;7.470;2023-05-20T02:55:12;9.80;99.90
27439;DHT22;14887;51.252;7.470;2023-05-20T02:57:37;9.80;99.90
27439;DHT22;14887;51.252;7.470;2023-05-20T03:00:04;9.70;99.90
27439;DHT22;14887;51.252;7.470;2023-05-20T03:02:31;9.70;99.90
27439;DHT22;14887;51.252;7.470;2023-05-20T03:04:57;9.70;99.90
27439;DHT22;14887;51.252;7.470;2023-05-20T03:07:22;9.70;99.90
27439;DHT22;14887;51.252;7.470;2023-05-20T03:09:48;9.70;99.90
27439;DHT22;14887;51.252;7.470;2023-05-20T03:12:14;9.70;99.90
27439;DHT22;14887;51.252;7.470;2023-05-20T03:14:39;9.70;99.90
27439;DHT22;14887;51.252;7.470;2023-05-20T03:17:05;9.70;1.00
27439;DHT22;14887;51.252;7.470;2023-05-20T03:19:30;9.60;1.00
27439;DHT22;14887;51.252;7.470;2023-05-20T03:21:56;9.60;1.00
27439;DHT22;14887;51.252;7.470;2023-05-20T03:24:22;9.60;1.00
27439;DHT22;14887;51.252;7.470;2023-05-20T03:26:48;9.50;1.00
27439;DHT22;14887;51.252;7.470;2023-05-20T03:29:13;9.50;1.00
27439;DHT22;14887;51.252;7.470;2023-05-20T03:31:39;9.50;80.90
27439;DHT22;14887;51.252;7.470;2023-05-20T03:34:06;9.50;41.20
27439;DHT22;14887;51.252;7.470;2023-05-20T03:36:32;9.50;27.70
27439;DHT22;14887;51.252;7.470;2023-05-20T03:38:57;9.50;99.90
27439;DHT22;14887;51.252;7.470;2023-05-20T03:41:23;9.40;99.90
27439;DHT22;14887;51.252;7.470;2023-05-20T03:43:48;9.40;99.90
27439;DHT22;14887;51.252;7.470;2023-05-20T03:46:14;9.40;99.90
27439;DHT22;14887;51.252;7.470;2023-05-20T03:48:39;9.30;99.90
27439;DHT22;14887;51.252;7.470;2023-05-20T03:51:05;9.30;99.90
27439;DHT22;14887;51.252;7.470;2023-05-20T03:53:31;9.30;99.90
27439;DHT22;14887;51.252;7.470;2023-05-20T03:55:56;9.30;99.90
27439;DHT22;14887;51.252;7.470;2023-05-20T03:58:22;9.30;99.90
27439;DHT22;14887;51.252;7.470;2023-05-20T04:00:47;9.30;99.90
27439;DHT22;14887;51.252;7.470;2023-05-20T04:03:13;9.30;99.90
27439;DHT22;14887;51.252;7.470;2023-05-20T04:05:39;9.30;99.90
27439;DHT22;14887;51.252;7.470;2023-05-20T04:08:05;9.30;99.90
27439;DHT22;14887;51.252;7.470;2023-05-20T04:10:32;9.40;99.90
27439;DHT22;14887;51.252;7.470;2023-05-20T04:12:58;9.40;99.90
27439;DHT22;14887;51.252;7.470;2023-05-20T04:15:23;9.40;99.90
27439;DHT22;14887;51.252;7.470;2023-05-20T04:17:50;9.30;99.90
27439;DHT22;14887;51.252;7.470;2023-05-20T04:20:17;9.30;99.90
27439;DHT22;14887;51.252;7.470;2023-05-20T04:22:43;9.30;99.90
27439;DHT22;14887;51.252;7.470;2023-05-20T04:25:09;9.30;99.90
27439;DHT22;14887;51.252;7.470;2023-05-20T04:27:35;9.30;99.90
27439;DHT22;14887;51.252;7.470;2023-05-20T04:30:02;9.40;99.90
27439;DHT22;14887;51.252;7.470;2023-05-20T04:32:28;9.40;99.90
27439;DHT22;14887;51.252;7.470;2023-05-20T04:34:54;9.40;99.90
27439;DHT22;14887;51.252;7.470;2023-05-20T04:37:24;9.50;99.90
27439;DHT22;14887;51.252;7.470;2023-05-20T04:39:49;9.50;99.90
27439;DHT22;14887;51.252;7.470;2023-05-20T04:42:15;9.60;99.90
27439;DHT22;14887;51.252;7.470;2023-05-20T04:44:43;9.70;98.30
27439;DHT22;14887;51.252;7.470;2023-05-20T04:47:10;9.80;29.10
27439;DHT22;14887;51.252;7.470;2023-05-20T04:49:36;9.80;1.00
27439;DHT22;14887;51.252;7.470;2023-05-20T04:52:02;9.90;1.00
27439;DHT22;14887;51.252;7.470;2023-05-20T04:54:29;10.00;1.00
27439;DHT22;14887;51.252;7.470;2023-05-20T04:56:55;10.00;1.00
27439;DHT22;14887;51.252;7.470;2023-05-20T04:59:21;10.00;1.00
27439;DHT22;14887;51.252;7.470;2023-05-20T05:01:46;10.10;1.00
27439;DHT22;14887;51.252;7.470;2023-05-20T05:04:12;10.10;1.00
27439;DHT22;14887;51.252;7.470;2023-05-20T05:06:37;10.20;1.00
27439;DHT22;14887;51.252;7.470;2023-05-20T05:09:03;10.30;1.00
27439;DHT22;14887;51.252;7.470;2023-05-20T05:11:29;10.40;1.00
27439;DHT22;14887;51.252;7.470;2023-05-20T05:13:55;10.60;62.50
27439;DHT22;14887;51.252;7.470;2023-05-20T05:16:21;10.60;99.90
27439;DHT22;14887;51.252;7.470;2023-05-20T05:18:47;10.70;99.90
27439;DHT22;14887;51.252;7.470;2023-05-20T05:21:12;10.80;99.90
27439;DHT22;14887;51.252;7.470;2023-05-20T05:23:38;11.00;46.10
27439;DHT22;14887;51.252;7.470;2023-05-20T05:26:03;11.10;1.00
27439;DHT22;14887;51.252;7.470;2023-05-20T05:28:29;11.20;99.90
27439;DHT22;14887;51.252;7.470;2023-05-20T05:30:55;11.30;1.00
27439;DHT22;14887;51.252;7.470;2023-05-20T05:33:21;11.40;30.50
27439;DHT22;14887;51.252;7.470;2023-05-20T05:35:46;11.40;1.00
27439;DHT22;14887;51.252;7.470;2023-05-20T05:38:12;11.50;99.90
27439;DHT22;14887;51.252;7.470;2023-05-20T05:40:38;11.60;1.00
27439;DHT22;14887;51.252;7.470;2023-05-20T05:43:03;11.70;1.00
27439;DHT22;14887;51.252;7.470;2023-05-20T05:45:29;11.70;99.90
27439;DHT22;14887;51.252;7.470;2023-05-20T05:47:54;11.80;1.00
27439;DHT22;14887;51.252;7.470;2023-05-20T05:50:20;11.70;99.90
27439;DHT22;14887;51.252;7.470;2023-05-20T05:52:45;11.80;99.90
27439;DHT22;14887;51.252;7.470;2023-05-20T05:55:11;11.80;99.90
27439;DHT22;14887;51.252;7.470;2023-05-20T05:57:36;12.00;99.90
27439;DHT22;14887;51.252;7.470;2023-05-20T06:00:03;12.00;1.00
27439;DHT22;14887;51.252;7.470;2023-05-20T06:02:29;12.20;99.90
27439;DHT22;14887;51.252;7.470;2023-05-20T06:04:54;12.20;1.00
27439;DHT22;14887;51.252;7.470;2023-05-20T06:07:22;12.30;99.90
27439;DHT22;14887;51.252;7.470;2023-05-20T06:09:47;12.30;1.00
27439;DHT22;14887;51.252;7.470;2023-05-20T06:12:13;12.40;99.90
27439;DHT22;14887;51.252;7.470;2023-05-20T06:14:38;12.40;1.00
27439;DHT22;14887;51.252;7.470;2023-05-20T06:17:04;12.50;99.90
27439;DHT22;14887;51.252;7.470;2023-05-20T06:19:30;12.60;99.90
27439;DHT22;14887;51.252;7.470;2023-05-20T06:21:56;12.70;99.90
27439;DHT22;14887;51.252;7.470;2023-05-20T06:24:22;12.90;1.00
27439;DHT22;14887;51.252;7.470;2023-05-20T06:26:48;12.80;1.00
27439;DHT22;14887;51.252;7.470;2023-05-20T06:29:15;13.00;16.00
27439;DHT22;14887;51.252;7.470;2023-05-20T06:31:40;12.90;1.00
27439;DHT22;14887;51.252;7.470;2023-05-20T06:34:06;13.10;1.00
27439;DHT22;14887;51.252;7.470;2023-05-20T06:36:32;13.10;99.90
27439;DHT22;14887;51.252;7.470;2023-05-20T06:38:57;13.00;99.90
27439;DHT22;14887;51.252;7.470;2023-05-20T06:41:23;13.10;1.00
27439;DHT22;14887;51.252;7.470;2023-05-20T06:43:48;13.00;1.00
27439;DHT22;14887;51.252;7.470;2023-05-20T06:46:14;12.90;1.00
27439;DHT22;14887;51.252;7.470;2023-05-20T06:48:39;13.00;1.00
27439;DHT22;14887;51.252;7.470;2023-05-20T06:51:07;13.00;1.00
27439;DHT22;14887;51.252;7.470;2023-05-20T06:53:34;13.20;1.00
27439;DHT22;14887;51.252;7.470;2023-05-20T06:56:00;13.30;1.00
27439;DHT22;14887;51.252;7.470;2023-05-20T06:58:25;13.20;99.90
27439;DHT22;14887;51.252;7.470;2023-05-20T07:00:51;13.30;99.90
27439;DHT22;14887;51.252;7.470;2023-05-20T07:03:16;13.30;99.90
27439;DHT22;14887;51.252;7.470;2023-05-20T07:05:42;13.30;99.90
27439;DHT22;14887;51.252;7.470;2023-05-20T07:08:07;13.50;99.90
27439;DHT22;14887;51.252;7.470;2023-05-20T07:10:33;13.70;99.90
27439;DHT22;14887;51.252;7.470;2023-05-20T07:12:59;13.70;81.00
27439;DHT22;14887;51.252;7.470;2023-05-20T07:15:24;13.90;99.90
27439;DHT22;14887;51.252;7.470;2023-05-20T07:17:50;14.10;1.00
27439;DHT22;14887;51.252;7.470;2023-05-20T07:20:16;14.20;1.00
27439;DHT22;14887;51.252;7.470;2023-05-20T07:22:41;14.40;1.00
27439;DHT22;14887;51.252;7.470;2023-05-20T07:25:08;14.60;1.00
27439;DHT22;14887;51.252;7.470;2023-05-20T07:27:34;14.60;1.00
27439;DHT22;14887;51.252;7.470;2023-05-20T07:30:00;14.60;1.00
27439;DHT22;14887;51.252;7.470;2023-05-20T07:32:26;14.60;1.00
27439;DHT22;14887;51.252;7.470;2023-05-20T07:34:51;14.50;1.00
27439;DHT22;14887;51.252;7.470;2023-05-20T07:37:17;14.60;1.00
27439;DHT22;14887;51.252;7.470;2023-05-20T07:39:43;14.80;1.00
27439;DHT22;14887;51.252;7.470;2023-05-20T07:42:08;15.00;1.00
27439;DHT22;14887;51.252;7.470;2023-05-20T07:44:34;15.30;99.90
27439;DHT22;14887;51.252;7.470;2023-05-20T07:46:59;15.20;99.90
27439;DHT22;14887;51.252;7.470;2023-05-20T07:49:25;15.30;99.90
27439;DHT22;14887;51.252;7.470;2023-05-20T07:51:51;15.20;99.90
27439;DHT22;14887;51.252;7.470;2023-05-20T07:54:16;15.40;99.90
27439;DHT22;14887;51.252;7.470;2023-05-20T07:56:42;15.60;99.90
27439;DHT22;14887;51.252;7.470;2023-05-20T07:59:07;15.80;99.90
27439;DHT22;14887;51.252;7.470;2023-05-20T08:01:33;15.90;99.90
27439;DHT22;14887;51.252;7.470;2023-05-20T08:03:59;16.00;99.90
27439;DHT22;14887;51.252;7.470;2023-05-20T08:06:25;16.30;99.90
27439;DHT22;14887;51.252;7.470;2023-05-20T08:08:51;16.20;99.90
27439;DHT22;14887;51.252;7.470;2023-05-20T08:11:18;16.30;63.50
27439;DHT22;14887;51.252;7.470;2023-05-20T08:13:44;16.30;1.00
27439;DHT22;14887;51.252;7.470;2023-05-20T08:16:10;16.00;70.70
27439;DHT22;14887;51.252;7.470;2023-05-20T08:18:35;16.00;99.90
27439;DHT22;14887;51.252;7.470;2023-05-20T08:21:02;15.50;99.90
27439;DHT22;14887;51.252;7.470;2023-05-20T08:23:28;15.40;99.90
27439;DHT22;14887;51.252;7.470;2023-05-20T08:25:53;15.40;99.90
27439;DHT22;14887;51.252;7.470;2023-05-20T08:28:19;15.40;1.00
27439;DHT22;14887;51.252;7.470;2023-05-20T08:30:45;15.50;99.90
27439;DHT22;14887;51.252;7.470;2023-05-20T08:33:12;15.40;99.90
27439;DHT22;14887;51.252;7.470;2023-05-20T08:35:37;15.50;1.00
27439;DHT22;14887;51.252;7.470;2023-05-20T08:38:05;15.30;99.90
27439;DHT22;14887;51.252;7.470;2023-05-20T08:40:33;15.30;1.00
27439;DHT22;14887;51.252;7.470;2023-05-20T08:42:59;15.40;99.90
27439;DHT22;14887;51.252;7.470;2023-05-20T08:45:26;15.50;99.90
27439;DHT22;14887;51.252;7.470;2023-05-20T08:47:56;15.60;99.90
27439;DHT22;14887;51.252;7.470;2023-05-20T08:50:22;15.70;99.90
27439;DHT22;14887;51.252;7.470;2023-05-20T08:52:48;16.00;99.90
27439;DHT22;14887;51.252;7.470;2023-05-20T08:55:23;16.00;99.90
27439;DHT22;14887;51.252;7.470;2023-05-20T08:57:50;16.10;99.90
27439;DHT22;14887;51.252;7.470;2023-05-20T09:00:16;16.00;99.90
27439;DHT22;14887;51.252;7.470;2023-05-20T09:02:44;15.40;99.90
27439;DHT22;14887;51.252;7.470;2023-05-20T09:05:10;15.20;99.90
27439;DHT22;14887;51.252;7.470;2023-05-20T09:07:36;15.00;1.00
27439;DHT22;14887;51.252;7.470;2023-05-20T09:10:02;15.00;1.00
27439;DHT22;14887;51.252;7.470;2023-05-20T09:12:28;15.10;1.00
27439;DHT22;14887;51.252;7.470;2023-05-20T09:14:53;15.20;1.00
27439;DHT22;14887;51.252;7.470;2023-05-20T09:17:20;15.30;1.00
27439;DHT22;14887;51.252;7.470;2023-05-20T09:19:49;15.10;1.00
27439;DHT22;14887;51.252;7.470;2023-05-20T09:22:14;15.30;1.00
27439;DHT22;14887;51.252;7.470;2023-05-20T09:24:47;15.50;1.00
27439;DHT22;14887;51.252;7.470;2023-05-20T09:27:12;15.80;1.00
27439;DHT22;14887;51.252;7.470;2023-05-20T09:29:38;16.00;99.90
27439;DHT22;14887;51.252;7.470;2023-05-20T09:32:04;16.10;99.90
27439;DHT22;14887;51.252;7.470;2023-05-20T09:34:30;16.00;99.90
27439;DHT22;14887;51.252;7.470;2023-05-20T09:36:56;15.60;99.90
27439;DHT22;14887;51.252;7.470;2023-05-20T09:39:27;15.50;1.00
27439;DHT22;14887;51.252;7.470;2023-05-20T09:42:00;15.40;1.00
27439;DHT22;14887;51.252;7.470;2023-05-20T09:44:28;15.30;72.90
27439;DHT22;14887;51.252;7.470;2023-05-20T09:46:55;15.30;1.00
27439;DHT22;14887;51.252;7.470;2023-05-20T09:49:22;15.50;1.00
27439;DHT22;14887;51.252;7.470;2023-05-20T09:51:48;15.40;1.00
27439;DHT22;14887;51.252;7.470;2023-05-20T09:54:17;15.30;2.60
27439;DHT22;14887;51.252;7.470;2023-05-20T09:56:43;15.60;1.00
27439;DHT22;14887;51.252;7.470;2023-05-20T09:59:10;15.90;1.00
27439;DHT22;14887;51.252;7.470;2023-05-20T10:01:36;16.10;99.90
27439;DHT22;14887;51.252;7.470;2023-05-20T10:04:03;16.20;99.90
27439;DHT22;14887;51.252;7.470;2023-05-20T10:06:45;16.30;99.90
27439;DHT22;14887;51.252;7.470;2023-05-20T10:09:31;16.40;99.90
27439;DHT22;14887;51.252;7.470;2023-05-20T10:14:37;17.20;99.90
27439;DHT22;14887;51.252;7.470;2023-05-20T10:17:16;17.10;1.00
27439;DHT22;14887;51.252;7.470;2023-05-20T10:19:42;17.00;89.00
27439;DHT22;14887;51.252;7.470;2023-05-20T10:22:09;17.20;99.90
27439;DHT22;14887;51.252;7.470;2023-05-20T10:24:40;17.40;32.60
27439;DHT22;14887;51.252;7.470;2023-05-20T10:27:13;17.50;1.00
27439;DHT22;14887;51.252;7.470;2023-05-20T10:29:50;17.70;1.00
27439;DHT22;14887;51.252;7.470;2023-05-20T10:32:26;18.20;1.00
27439;DHT22;14887;51.252;7.470;2023-05-20T10:34:52;18.70;1.00
27439;DHT22;14887;51.252;7.470;2023-05-20T10:37:26;19.00;1.00
27439;DHT22;14887;51.252;7.470;2023-05-20T10:39:51;19.00;1.00
27439;DHT22;14887;51.252;7.470;2023-05-20T10:42:27;19.40;1.00
27439;DHT22;14887;51.252;7.470;2023-05-20T10:44:54;19.30;1.00
27439;DHT22;14887;51.252;7.470;2023-05-20T10:47:20;19.30;1.00
27439;DHT22;14887;51.252;7.470;2023-05-20T10:49:46;19.70;1.00
27439;DHT22;14887;51.252;7.470;2023-05-20T10:52:18;19.80;1.00
27439;DHT22;14887;51.252;7.470;2023-05-20T10:57:21;19.80;1.00
27439;DHT22;14887;51.252;7.470;2023-05-20T10:59:47;19.70;1.00
27439;DHT22;14887;51.252;7.470;2023-05-20T11:02:14;19.00;1.00
27439;DHT22;14887;51.252;7.470;2023-05-20T11:04:44;18.60;1.00
27439;DHT22;14887;51.252;7.470;2023-05-20T11:07:09;18.30;1.00
27439;DHT22;14887;51.252;7.470;2023-05-20T11:09:35;18.00;1.00
27439;DHT22;14887;51.252;7.470;2023-05-20T11:12:01;17.70;1.00
27439;DHT22;14887;51.252;7.470;2023-05-20T11:14:30;17.40;99.90
27439;DHT22;14887;51.252;7.470;2023-05-20T11:16:59;17.40;99.90
27439;DHT22;14887;51.252;7.470;2023-05-20T11:19:25;17.20;99.90
27439;DHT22;14887;51.252;7.470;2023-05-20T11:21:52;17.40;99.90
27439;DHT22;14887;51.252;7.470;2023-05-20T11:24:25;18.00;99.90
27439;DHT22;14887;51.252;7.470;2023-05-20T11:26:52;18.50;1.00
27439;DHT22;14887;51.252;7.470;2023-05-20T11:29:18;18.70;1.00
27439;DHT22;14887;51.252;7.470;2023-05-20T11:31:49;18.60;1.00
27439;DHT22;14887;51.252;7.470;2023-05-20T11:34:21;18.20;1.00
27439;DHT22;14887;51.252;7.470;2023-05-20T11:36:48;18.30;1.00
27439;DHT22;14887;51.252;7.470;2023-05-20T11:39:15;18.60;1.00
27439;DHT22;14887;51.252;7.470;2023-05-20T11:41:41;18.70;1.00
27439;DHT22;14887;51.252;7.470;2023-05-20T11:44:11;18.70;1.00
27439;DHT22;14887;51.252;7.470;2023-05-20T11:46:45;18.90;1.00
27439;DHT22;14887;51.252;7.470;2023-05-20T11:49:15;19.30;1.00
27439;DHT22;14887;51.252;7.470;2023-05-20T11:51:42;19.20;1.00
27439;DHT22;14887;51.252;7.470;2023-05-20T11:54:08;19.00;1.00
27439;DHT22;14887;51.252;7.470;2023-05-20T11:56:38;18.70;1.00
27439;DHT22;14887;51.252;7.470;2023-05-20T11:59:07;18.50;1.00
27439;DHT22;14887;51.252;7.470;2023-05-20T12:01:35;18.10;1.00
27439;DHT22;14887;51.252;7.470;2023-05-20T12:04:11;17.80;74.20
27439;DHT22;14887;51.252;7.470;2023-05-20T12:06:40;17.50;99.90
27439;DHT22;14887;51.252;7.470;2023-05-20T12:09:09;17.40;99.90
27439;DHT22;14887;51.252;7.470;2023-05-20T12:11:36;17.10;99.90
27439;DHT22;14887;51.252;7.470;2023-05-20T12:14:04;16.80;1.00
27439;DHT22;14887;51.252;7.470;2023-05-20T12:16:32;16.60;1.00
27439;DHT22;14887;51.252;7.470;2023-05-20T12:18:58;16.50;1.00
27439;DHT22;14887;51.252;7.470;2023-05-20T12:21:23;16.40;1.00
27439;DHT22;14887;51.252;7.470;2023-05-20T12:23:49;16.50;1.00
27439;DHT22;14887;51.252;7.470;2023-05-20T12:26:15;16.70;1.00
27439;DHT22;14887;51.252;7.470;2023-05-20T12:28:40;17.00;1.00
27439;DHT22;14887;51.252;7.470;2023-05-20T12:31:06;17.30;99.90
27439;DHT22;14887;51.252;7.470;2023-05-20T12:33:31;17.40;99.90
27439;DHT22;14887;51.252;7.470;2023-05-20T12:35:57;17.70;99.90
27439;DHT22;14887;51.252;7.470;2023-05-20T12:38:23;17.70;38.60
27439;DHT22;14887;51.252;7.470;2023-05-20T12:40:48;17.70;1.00
27439;DHT22;14887;51.252;7.470;2023-05-20T12:43:14;17.70;99.90
27439;DHT22;14887;51.252;7.470;2023-05-20T12:45:39;18.00;1.00
27439;DHT22;14887;51.252;7.470;2023-05-20T12:48:05;18.70;1.00
27439;DHT22;14887;51.252;7.470;2023-05-20T12:50:32;19.00;1.00
27439;DHT22;14887;51.252;7.470;2023-05-20T12:52:57;19.30;1.00
27439;DHT22;14887;51.252;7.470;2023-05-20T12:55:23;19.10;1.00
27439;DHT22;14887;51.252;7.470;2023-05-20T12:57:49;19.30;1.00
27439;DHT22;14887;51.252;7.470;2023-05-20T13:00:15;19.60;1.00
27439;DHT22;14887;51.252;7.470;2023-05-20T13:02:41;20.00;1.00
27439;DHT22;14887;51.252;7.470;2023-05-20T13:05:08;20.00;1.00
27439;DHT22;14887;51.252;7.470;2023-05-20T13:07:34;19.80;1.00
27439;DHT22;14887;51.252;7.470;2023-05-20T13:09:59;19.90;1.00
27439;DHT22;14887;51.252;7.470;2023-05-20T13:12:25;19.80;1.00
27439;DHT22;14887;51.252;7.470;2023-05-20T13:14:51;19.70;1.00
27439;DHT22;14887;51.252;7.470;2023-05-20T13:17:16;19.60;1.00
27439;DHT22;14887;51.252;7.470;2023-05-20T13:19:42;19.20;1.00
27439;DHT22;14887;51.252;7.470;2023-05-20T13:22:10;19.20;1.00
27439;DHT22;14887;51.252;7.470;2023-05-20T13:24:36;19.20;1.00
27439;DHT22;14887;51.252;7.470;2023-05-20T13:27:02;18.90;1.00
27439;DHT22;14887;51.252;7.470;2023-05-20T13:29:28;18.80;1.00
27439;DHT22;14887;51.252;7.470;2023-05-20T13:31:53;18.50;1.00
27439;DHT22;14887;51.252;7.470;2023-05-20T13:34:19;18.30;1.00
27439;DHT22;14887;51.252;7.470;2023-05-20T13:36:45;19.00;1.00
27439;DHT22;14887;51.252;7.470;2023-05-20T13:39:12;19.60;1.00
27439;DHT22;14887;51.252;7.470;2023-05-20T13:41:38;20.00;1.00
27439;DHT22;14887;51.252;7.470;2023-05-20T13:44:03;19.80;1.00
27439;DHT22;14887;51.252;7.470;2023-05-20T13:46:29;19.20;1.00
27439;DHT22;14887;51.252;7.470;2023-05-20T13:48:54;19.20;1.00
27439;DHT22;14887;51.252;7.470;2023-05-20T13:51:20;19.80;1.00
27439;DHT22;14887;51.252;7.470;2023-05-20T13:53:46;20.40;1.00
27439;DHT22;14887;51.252;7.470;2023-05-20T13:56:11;20.30;1.00
27439;DHT22;14887;51.252;7.470;2023-05-20T13:58:37;20.20;1.00
27439;DHT22;14887;51.252;7.470;2023-05-20T14:01:04;19.80;1.00
27439;DHT22;14887;51.252;7.470;2023-05-20T14:03:32;19.60;1.00
27439;DHT22;14887;51.252;7.470;2023-05-20T14:05:59;19.10;1.00
27439;DHT22;14887;51.252;7.470;2023-05-20T14:08:25;18.70;1.00
27439;DHT22;14887;51.252;7.470;2023-05-20T14:10:51;18.50;1.00
27439;DHT22;14887;51.252;7.470;2023-05-20T14:13:22;18.10;1.00
27439;DHT22;14887;51.252;7.470;2023-05-20T14:15:48;17.70;92.60
27439;DHT22;14887;51.252;7.470;2023-05-20T14:18:15;17.50;99.90
27439;DHT22;14887;51.252;7.470;2023-05-20T14:20:41;17.30;99.90
27439;DHT22;14887;51.252;7.470;2023-05-20T14:23:06;17.40;99.90
27439;DHT22;14887;51.252;7.470;2023-05-20T14:25:32;17.10;99.90
27439;DHT22;14887;51.252;7.470;2023-05-20T14:27:57;17.10;99.90
27439;DHT22;14887;51.252;7.470;2023-05-20T14:30:23;17.10;99.90
27439;DHT22;14887;51.252;7.470;2023-05-20T14:32:49;17.20;99.90
27439;DHT22;14887;51.252;7.470;2023-05-20T14:35:15;17.30;99.90
27439;DHT22;14887;51.252;7.470;2023-05-20T14:37:41;17.50;99.90
27439;DHT22;14887;51.252;7.470;2023-05-20T14:40:07;17.90;99.90
27439;DHT22;14887;51.252;7.470;2023-05-20T14:42:32;17.80;41.00
27439;DHT22;14887;51.252;7.470;2023-05-20T14:44:58;17.40;99.90
27439;DHT22;14887;51.252;7.470;2023-05-20T14:47:24;17.20;99.90
27439;DHT22;14887;51.252;7.470;2023-05-20T14:49:50;17.00;99.90
27439;DHT22;14887;51.252;7.470;2023-05-20T14:52:16;17.00;99.90
27439;DHT22;14887;51.252;7.470;2023-05-20T14:54:42;16.90;99.90
27439;DHT22;14887;51.252;7.470;2023-05-20T14:57:08;16.80;99.90
27439;DHT22;14887;51.252;7.470;2023-05-20T14:59:34;17.00;99.90
27439;DHT22;14887;51.252;7.470;2023-05-20T15:01:59;16.70;99.90
27439;DHT22;14887;51.252;7.470;2023-05-20T15:04:25;16.70;1.00
27439;DHT22;14887;51.252;7.470;2023-05-20T15:06:51;16.70;99.90
27439;DHT22;14887;51.252;7.470;2023-05-20T15:09:17;16.60;1.00
27439;DHT22;14887;51.252;7.470;2023-05-20T15:11:43;16.70;1.00
27439;DHT22;14887;51.252;7.470;2023-05-20T15:14:09;16.60;1.00
27439;DHT22;14887;51.252;7.470;2023-05-20T15:16:34;16.50;1.00
27439;DHT22;14887;51.252;7.470;2023-05-20T15:19:00;16.50;1.00
27439;DHT22;14887;51.252;7.470;2023-05-20T15:21:26;16.50;1.00
27439;DHT22;14887;51.252;7.470;2023-05-20T15:23:51;16.50;1.00
27439;DHT22;14887;51.252;7.470;2023-05-20T15:26:17;16.40;1.00
27439;DHT22;14887;51.252;7.470;2023-05-20T15:28:42;16.50;1.00
27439;DHT22;14887;51.252;7.470;2023-05-20T15:31:08;16.50;1.00
27439;DHT22;14887;51.252;7.470;2023-05-20T15:33:34;16.40;1.00
27439;DHT22;14887;51.252;7.470;2023-05-20T15:36:00;16.40;1.00
27439;DHT22;14887;51.252;7.470;2023-05-20T15:38:25;16.30;1.00
27439;DHT22;14887;51.252;7.470;2023-05-20T15:40:51;16.40;1.00